sensor_id;sensor_type;location;lat;lon;timestamp;P1;durP1;ratioP1;P2;durP2;ratioP2
12838;SDS011;6486;51.034;5.262;2023-02-08T00:00:16;4.53;;;3.07;;
12838;SDS011;6486;51.034;5.262;2023-02-08T00:02:42;4.80;;;2.23;;
12838;SDS011;6486;51.034;5.262;2023-02-08T00:05:08;4.73;;;3.23;;
12838;SDS011;6486;51.034;5.262;2023-02-08T00:07:33;7.40;;;3.07;;
12838;SDS011;6486;51.034;5.262;2023-02-08T00:09:59;7.23;;;3.20;;
12838;SDS011;6486;51.034;5.262;2023-02-08T00:12:25;5.43;;;2.73;;
12838;SDS011;6486;51.034;5.262;2023-02-08T00:14:52;6.73;;;3.63;;
12838;SDS011;6486;51.034;5.262;2023-02-08T00:17:17;4.33;;;2.00;;
12838;SDS011;6486;51.034;5.262;2023-02-08T00:19:43;4.63;;;2.50;;
12838;SDS011;6486;51.034;5.262;2023-02-08T00:22:09;4.27;;;2.77;;
12838;SDS011;6486;51.034;5.262;2023-02-08T00:24:34;10.77;;;3.57;;
12838;SDS011;6486;51.034;5.262;2023-02-08T00:27:00;4.80;;;3.43;;
12838;SDS011;6486;51.034;5.262;2023-02-08T00:29:25;2.93;;;2.70;;
12838;SDS011;6486;51.034;5.262;2023-02-08T00:31:51;4.17;;;3.03;;
12838;SDS011;6486;51.034;5.262;2023-02-08T00:34:17;7.67;;;2.67;;
12838;SDS011;6486;51.034;5.262;2023-02-08T00:36:42;4.23;;;2.93;;
12838;SDS011;6486;51.034;5.262;2023-02-08T00:39:08;7.47;;;3.90;;
12838;SDS011;6486;51.034;5.262;2023-02-08T00:41:33;11.90;;;3.47;;
12838;SDS011;6486;51.034;5.262;2023-02-08T00:43:59;5.73;;;3.80;;
12838;SDS011;6486;51.034;5.262;2023-02-08T00:46:25;9.70;;;3.17;;
12838;SDS011;6486;51.034;5.262;2023-02-08T00:48:50;7.60;;;4.40;;
12838;SDS011;6486;51.034;5.262;2023-02-08T00:51:16;4.97;;;2.97;;
12838;SDS011;6486;51.034;5.262;2023-02-08T00:53:43;3.63;;;3.07;;
12838;SDS011;6486;51.034;5.262;2023-02-08T00:56:10;3.83;;;2.37;;
12838;SDS011;6486;51.034;5.262;2023-02-08T00:58:37;5.23;;;2.90;;
12838;SDS011;6486;51.034;5.262;2023-02-08T01:01:03;6.17;;;3.87;;
12838;SDS011;6486;51.034;5.262;2023-02-08T01:03:31;6.23;;;3.80;;
12838;SDS011;6486;51.034;5.262;2023-02-08T01:06:03;4.90;;;3.23;;
12838;SDS011;6486;51.034;5.262;2023-02-08T01:08:30;7.87;;;3.37;;
12838;SDS011;6486;51.034;5.262;2023-02-08T01:11:06;7.30;;;3.87;;
12838;SDS011;6486;51.034;5.262;2023-02-08T01:13:35;6.33;;;4.50;;
12838;SDS011;6486;51.034;5.262;2023-02-08T01:16:05;12.23;;;5.57;;
12838;SDS011;6486;51.034;5.262;2023-02-08T01:18:39;11.87;;;4.93;;
12838;SDS011;6486;51.034;5.262;2023-02-08T01:21:09;6.93;;;3.47;;
12838;SDS011;6486;51.034;5.262;2023-02-08T01:23:39;5.93;;;3.43;;
12838;SDS011;6486;51.034;5.262;2023-02-08T01:26:06;5.07;;;2.60;;
12838;SDS011;6486;51.034;5.262;2023-02-08T01:28:32;8.93;;;3.67;;
12838;SDS011;6486;51.034;5.262;2023-02-08T01:30:59;4.40;;;3.07;;
12838;SDS011;6486;51.034;5.262;2023-02-08T01:33:28;7.60;;;4.57;;
12838;SDS011;6486;51.034;5.262;2023-02-08T01:35:54;6.13;;;3.70;;
12838;SDS011;6486;51.034;5.262;2023-02-08T01:38:20;6.47;;;2.97;;
12838;SDS011;6486;51.034;5.262;2023-02-08T01:40:46;5.97;;;3.83;;
12838;SDS011;6486;51.034;5.262;2023-02-08T01:43:57;4.60;;;2.83;;
12838;SDS011;6486;51.034;5.262;2023-02-08T01:46:19;3.13;;;2.37;;
12838;SDS011;6486;51.034;5.262;2023-02-08T01:48:45;4.23;;;2.93;;
12838;SDS011;6486;51.034;5.262;2023-02-08T01:51:12;4.97;;;3.13;;
12838;SDS011;6486;51.034;5.262;2023-02-08T01:53:41;8.60;;;3.77;;
12838;SDS011;6486;51.034;5.262;2023-02-08T01:56:12;3.70;;;2.87;;
12838;SDS011;6486;51.034;5.262;2023-02-08T01:58:45;4.43;;;2.77;;
12838;SDS011;6486;51.034;5.262;2023-02-08T02:01:14;3.37;;;3.07;;
12838;SDS011;6486;51.034;5.262;2023-02-08T02:03:40;8.43;;;3.30;;
12838;SDS011;6486;51.034;5.262;2023-02-08T02:06:07;6.27;;;3.13;;
12838;SDS011;6486;51.034;5.262;2023-02-08T02:08:41;3.83;;;2.60;;
12838;SDS011;6486;51.034;5.262;2023-02-08T02:11:13;7.17;;;4.33;;
12838;SDS011;6486;51.034;5.262;2023-02-08T02:13:40;6.93;;;3.67;;
12838;SDS011;6486;51.034;5.262;2023-02-08T02:16:06;4.80;;;3.10;;
12838;SDS011;6486;51.034;5.262;2023-02-08T02:18:32;3.80;;;2.73;;
12838;SDS011;6486;51.034;5.262;2023-02-08T02:23:34;5.80;;;2.80;;
12838;SDS011;6486;51.034;5.262;2023-02-08T02:34:44;6.97;;;3.63;;
12838;SDS011;6486;51.034;5.262;2023-02-08T02:40:09;4.93;;;3.23;;
12838;SDS011;6486;51.034;5.262;2023-02-08T02:45:54;5.90;;;3.27;;
12838;SDS011;6486;51.034;5.262;2023-02-08T02:50:56;9.10;;;3.53;;
12838;SDS011;6486;51.034;5.262;2023-02-08T02:56:36;4.77;;;3.13;;
12838;SDS011;6486;51.034;5.262;2023-02-08T02:59:08;4.47;;;3.40;;
12838;SDS011;6486;51.034;5.262;2023-02-08T03:01:36;8.73;;;3.93;;
12838;SDS011;6486;51.034;5.262;2023-02-08T03:04:15;5.70;;;3.23;;
12838;SDS011;6486;51.034;5.262;2023-02-08T03:07:04;9.27;;;3.37;;
12838;SDS011;6486;51.034;5.262;2023-02-08T03:23:17;6.97;;;3.17;;
12838;SDS011;6486;51.034;5.262;2023-02-08T03:28:25;7.87;;;4.10;;
12838;SDS011;6486;51.034;5.262;2023-02-08T03:31:04;10.40;;;4.37;;
12838;SDS011;6486;51.034;5.262;2023-02-08T03:34:31;4.23;;;3.23;;
12838;SDS011;6486;51.034;5.262;2023-02-08T03:39:49;5.60;;;3.53;;
12838;SDS011;6486;51.034;5.262;2023-02-08T03:42:18;5.77;;;2.67;;
12838;SDS011;6486;51.034;5.262;2023-02-08T03:44:59;8.87;;;3.87;;
12838;SDS011;6486;51.034;5.262;2023-02-08T03:47:32;6.73;;;3.50;;
12838;SDS011;6486;51.034;5.262;2023-02-08T03:50:02;4.90;;;2.27;;
12838;SDS011;6486;51.034;5.262;2023-02-08T03:52:30;6.13;;;4.13;;
12838;SDS011;6486;51.034;5.262;2023-02-08T03:54:59;10.20;;;2.63;;
12838;SDS011;6486;51.034;5.262;2023-02-08T03:57:29;6.83;;;4.07;;
12838;SDS011;6486;51.034;5.262;2023-02-08T04:00:01;10.13;;;4.27;;
12838;SDS011;6486;51.034;5.262;2023-02-08T04:02:40;5.07;;;2.80;;
12838;SDS011;6486;51.034;5.262;2023-02-08T04:05:17;6.07;;;2.73;;
12838;SDS011;6486;51.034;5.262;2023-02-08T04:07:44;4.23;;;3.37;;
12838;SDS011;6486;51.034;5.262;2023-02-08T04:10:09;5.27;;;2.97;;
12838;SDS011;6486;51.034;5.262;2023-02-08T04:12:35;5.30;;;3.23;;
12838;SDS011;6486;51.034;5.262;2023-02-08T04:15:01;7.67;;;2.83;;
12838;SDS011;6486;51.034;5.262;2023-02-08T04:17:26;2.73;;;2.37;;
12838;SDS011;6486;51.034;5.262;2023-02-08T04:19:52;3.30;;;2.10;;
12838;SDS011;6486;51.034;5.262;2023-02-08T04:22:18;6.20;;;2.77;;
12838;SDS011;6486;51.034;5.262;2023-02-08T04:24:43;5.03;;;3.53;;
12838;SDS011;6486;51.034;5.262;2023-02-08T04:27:09;7.47;;;3.90;;
12838;SDS011;6486;51.034;5.262;2023-02-08T04:29:35;2.93;;;2.13;;
12838;SDS011;6486;51.034;5.262;2023-02-08T04:32:00;6.13;;;3.47;;
12838;SDS011;6486;51.034;5.262;2023-02-08T04:34:26;3.20;;;2.70;;
12838;SDS011;6486;51.034;5.262;2023-02-08T04:36:52;5.30;;;3.27;;
12838;SDS011;6486;51.034;5.262;2023-02-08T04:39:17;6.07;;;2.57;;
12838;SDS011;6486;51.034;5.262;2023-02-08T04:41:43;6.17;;;3.60;;
12838;SDS011;6486;51.034;5.262;2023-02-08T04:44:09;8.70;;;2.90;;
12838;SDS011;6486;51.034;5.262;2023-02-08T04:46:34;5.13;;;2.50;;
12838;SDS011;6486;51.034;5.262;2023-02-08T04:49:00;11.30;;;3.77;;
12838;SDS011;6486;51.034;5.262;2023-02-08T04:51:26;6.30;;;2.47;;
12838;SDS011;6486;51.034;5.262;2023-02-08T04:53:51;2.23;;;2.03;;
12838;SDS011;6486;51.034;5.262;2023-02-08T04:56:17;7.47;;;3.77;;
12838;SDS011;6486;51.034;5.262;2023-02-08T04:58:43;8.27;;;3.17;;
12838;SDS011;6486;51.034;5.262;2023-02-08T05:01:08;9.93;;;3.60;;
12838;SDS011;6486;51.034;5.262;2023-02-08T05:03:35;4.50;;;2.80;;
12838;SDS011;6486;51.034;5.262;2023-02-08T05:06:01;4.87;;;2.37;;
12838;SDS011;6486;51.034;5.262;2023-02-08T05:08:26;4.47;;;3.17;;
12838;SDS011;6486;51.034;5.262;2023-02-08T05:10:52;6.33;;;3.57;;
12838;SDS011;6486;51.034;5.262;2023-02-08T05:13:18;3.60;;;2.57;;
12838;SDS011;6486;51.034;5.262;2023-02-08T05:15:43;7.47;;;3.03;;
12838;SDS011;6486;51.034;5.262;2023-02-08T05:18:09;2.43;;;1.90;;
12838;SDS011;6486;51.034;5.262;2023-02-08T05:20:34;6.77;;;3.10;;
12838;SDS011;6486;51.034;5.262;2023-02-08T05:23:00;3.33;;;2.27;;
12838;SDS011;6486;51.034;5.262;2023-02-08T05:25:26;5.77;;;3.30;;
12838;SDS011;6486;51.034;5.262;2023-02-08T05:27:51;3.43;;;3.13;;
12838;SDS011;6486;51.034;5.262;2023-02-08T05:30:17;7.20;;;3.67;;
12838;SDS011;6486;51.034;5.262;2023-02-08T05:32:43;11.80;;;3.57;;
12838;SDS011;6486;51.034;5.262;2023-02-08T05:35:08;5.13;;;3.07;;
12838;SDS011;6486;51.034;5.262;2023-02-08T05:37:34;5.03;;;2.73;;
12838;SDS011;6486;51.034;5.262;2023-02-08T05:39:59;7.03;;;3.00;;
12838;SDS011;6486;51.034;5.262;2023-02-08T05:42:25;6.97;;;3.53;;
12838;SDS011;6486;51.034;5.262;2023-02-08T05:44:51;8.13;;;2.93;;
12838;SDS011;6486;51.034;5.262;2023-02-08T05:47:17;5.00;;;2.50;;
12838;SDS011;6486;51.034;5.262;2023-02-08T05:49:42;4.97;;;3.17;;
12838;SDS011;6486;51.034;5.262;2023-02-08T05:52:08;2.60;;;2.33;;
12838;SDS011;6486;51.034;5.262;2023-02-08T05:54:34;5.83;;;2.87;;
12838;SDS011;6486;51.034;5.262;2023-02-08T05:56:59;4.97;;;2.27;;
12838;SDS011;6486;51.034;5.262;2023-02-08T05:59:25;5.77;;;3.00;;
12838;SDS011;6486;51.034;5.262;2023-02-08T06:01:51;6.40;;;3.00;;
12838;SDS011;6486;51.034;5.262;2023-02-08T06:04:17;9.10;;;3.67;;
12838;SDS011;6486;51.034;5.262;2023-02-08T06:06:42;4.73;;;1.73;;
12838;SDS011;6486;51.034;5.262;2023-02-08T06:09:08;8.93;;;3.93;;
12838;SDS011;6486;51.034;5.262;2023-02-08T06:11:34;6.40;;;3.77;;
12838;SDS011;6486;51.034;5.262;2023-02-08T06:14:00;7.37;;;3.30;;
12838;SDS011;6486;51.034;5.262;2023-02-08T06:16:27;8.33;;;3.33;;
12838;SDS011;6486;51.034;5.262;2023-02-08T06:18:52;7.00;;;3.60;;
12838;SDS011;6486;51.034;5.262;2023-02-08T06:21:18;5.83;;;2.83;;
12838;SDS011;6486;51.034;5.262;2023-02-08T06:23:44;7.23;;;4.33;;
12838;SDS011;6486;51.034;5.262;2023-02-08T06:26:09;5.33;;;3.33;;
12838;SDS011;6486;51.034;5.262;2023-02-08T06:28:35;9.23;;;4.93;;
12838;SDS011;6486;51.034;5.262;2023-02-08T06:31:01;6.70;;;3.80;;
12838;SDS011;6486;51.034;5.262;2023-02-08T06:33:27;3.50;;;3.20;;
12838;SDS011;6486;51.034;5.262;2023-02-08T06:35:53;4.83;;;3.47;;
12838;SDS011;6486;51.034;5.262;2023-02-08T06:38:19;4.77;;;2.70;;
12838;SDS011;6486;51.034;5.262;2023-02-08T06:40:45;9.03;;;4.27;;
12838;SDS011;6486;51.034;5.262;2023-02-08T06:43:11;6.90;;;3.70;;
12838;SDS011;6486;51.034;5.262;2023-02-08T06:45:37;8.13;;;3.87;;
12838;SDS011;6486;51.034;5.262;2023-02-08T06:48:03;7.17;;;4.37;;
12838;SDS011;6486;51.034;5.262;2023-02-08T06:50:29;5.83;;;3.53;;
12838;SDS011;6486;51.034;5.262;2023-02-08T06:52:55;5.27;;;4.10;;
12838;SDS011;6486;51.034;5.262;2023-02-08T06:55:20;8.07;;;3.53;;
12838;SDS011;6486;51.034;5.262;2023-02-08T06:57:46;8.60;;;4.00;;
12838;SDS011;6486;51.034;5.262;2023-02-08T07:00:12;5.97;;;3.60;;
12838;SDS011;6486;51.034;5.262;2023-02-08T07:02:38;7.00;;;3.63;;
12838;SDS011;6486;51.034;5.262;2023-02-08T07:05:04;3.73;;;2.83;;
12838;SDS011;6486;51.034;5.262;2023-02-08T07:07:29;12.17;;;3.73;;
12838;SDS011;6486;51.034;5.262;2023-02-08T07:09:55;3.50;;;2.60;;
12838;SDS011;6486;51.034;5.262;2023-02-08T07:12:21;5.93;;;3.00;;
12838;SDS011;6486;51.034;5.262;2023-02-08T07:14:46;8.50;;;3.40;;
12838;SDS011;6486;51.034;5.262;2023-02-08T07:17:12;2.70;;;2.43;;
12838;SDS011;6486;51.034;5.262;2023-02-08T07:19:38;3.70;;;2.53;;
12838;SDS011;6486;51.034;5.262;2023-02-08T07:22:04;7.47;;;2.80;;
12838;SDS011;6486;51.034;5.262;2023-02-08T07:24:36;3.40;;;2.97;;
12838;SDS011;6486;51.034;5.262;2023-02-08T07:27:03;3.53;;;2.23;;
12838;SDS011;6486;51.034;5.262;2023-02-08T07:29:30;5.93;;;3.70;;
12838;SDS011;6486;51.034;5.262;2023-02-08T07:31:57;5.33;;;3.70;;
12838;SDS011;6486;51.034;5.262;2023-02-08T07:34:24;5.27;;;2.80;;
12838;SDS011;6486;51.034;5.262;2023-02-08T07:36:52;5.70;;;3.90;;
12838;SDS011;6486;51.034;5.262;2023-02-08T07:39:18;6.27;;;2.73;;
12838;SDS011;6486;51.034;5.262;2023-02-08T07:41:43;13.60;;;4.27;;
12838;SDS011;6486;51.034;5.262;2023-02-08T07:44:09;6.63;;;3.73;;
12838;SDS011;6486;51.034;5.262;2023-02-08T07:46:34;6.37;;;3.30;;
12838;SDS011;6486;51.034;5.262;2023-02-08T07:49:00;8.73;;;4.03;;
12838;SDS011;6486;51.034;5.262;2023-02-08T07:51:26;6.97;;;3.77;;
12838;SDS011;6486;51.034;5.262;2023-02-08T07:53:51;6.57;;;3.63;;
12838;SDS011;6486;51.034;5.262;2023-02-08T07:56:17;9.07;;;3.17;;
12838;SDS011;6486;51.034;5.262;2023-02-08T07:58:43;6.53;;;2.83;;
12838;SDS011;6486;51.034;5.262;2023-02-08T08:01:08;5.37;;;3.23;;
12838;SDS011;6486;51.034;5.262;2023-02-08T08:03:34;5.70;;;2.67;;
12838;SDS011;6486;51.034;5.262;2023-02-08T08:05:59;5.13;;;3.47;;
12838;SDS011;6486;51.034;5.262;2023-02-08T08:08:25;11.53;;;3.37;;
12838;SDS011;6486;51.034;5.262;2023-02-08T08:10:51;3.90;;;3.47;;
12838;SDS011;6486;51.034;5.262;2023-02-08T08:13:16;6.90;;;3.20;;
12838;SDS011;6486;51.034;5.262;2023-02-08T08:15:42;6.57;;;3.47;;
12838;SDS011;6486;51.034;5.262;2023-02-08T08:18:08;4.83;;;3.80;;
12838;SDS011;6486;51.034;5.262;2023-02-08T08:20:33;7.27;;;3.93;;
12838;SDS011;6486;51.034;5.262;2023-02-08T08:23:00;3.03;;;2.27;;
12838;SDS011;6486;51.034;5.262;2023-02-08T08:25:26;4.57;;;3.33;;
12838;SDS011;6486;51.034;5.262;2023-02-08T08:27:52;4.73;;;3.77;;
12838;SDS011;6486;51.034;5.262;2023-02-08T08:30:18;5.10;;;1.87;;
12838;SDS011;6486;51.034;5.262;2023-02-08T08:32:45;3.13;;;2.30;;
12838;SDS011;6486;51.034;5.262;2023-02-08T08:35:10;5.90;;;2.73;;
12838;SDS011;6486;51.034;5.262;2023-02-08T08:37:36;3.60;;;2.77;;
12838;SDS011;6486;51.034;5.262;2023-02-08T08:40:02;4.40;;;2.30;;
12838;SDS011;6486;51.034;5.262;2023-02-08T08:42:29;5.03;;;3.93;;
12838;SDS011;6486;51.034;5.262;2023-02-08T08:44:54;3.63;;;2.83;;
12838;SDS011;6486;51.034;5.262;2023-02-08T08:47:20;6.30;;;3.10;;
12838;SDS011;6486;51.034;5.262;2023-02-08T08:49:46;3.27;;;2.13;;
12838;SDS011;6486;51.034;5.262;2023-02-08T08:52:11;5.60;;;3.20;;
12838;SDS011;6486;51.034;5.262;2023-02-08T08:54:38;4.30;;;3.37;;
12838;SDS011;6486;51.034;5.262;2023-02-08T08:57:04;4.63;;;3.10;;
12838;SDS011;6486;51.034;5.262;2023-02-08T08:59:30;4.97;;;3.03;;
12838;SDS011;6486;51.034;5.262;2023-02-08T09:01:56;4.97;;;3.20;;
12838;SDS011;6486;51.034;5.262;2023-02-08T09:04:21;3.43;;;2.43;;
12838;SDS011;6486;51.034;5.262;2023-02-08T09:06:47;5.00;;;3.17;;
12838;SDS011;6486;51.034;5.262;2023-02-08T09:09:14;6.10;;;2.50;;
12838;SDS011;6486;51.034;5.262;2023-02-08T09:11:40;4.10;;;1.97;;
12838;SDS011;6486;51.034;5.262;2023-02-08T09:14:06;4.17;;;2.60;;
12838;SDS011;6486;51.034;5.262;2023-02-08T09:16:32;9.13;;;3.53;;
12838;SDS011;6486;51.034;5.262;2023-02-08T09:19:01;4.57;;;2.70;;
12838;SDS011;6486;51.034;5.262;2023-02-08T09:21:27;5.73;;;4.47;;
12838;SDS011;6486;51.034;5.262;2023-02-08T09:23:53;5.77;;;3.87;;
12838;SDS011;6486;51.034;5.262;2023-02-08T09:26:19;5.50;;;3.13;;
12838;SDS011;6486;51.034;5.262;2023-02-08T09:28:45;5.03;;;3.37;;
12838;SDS011;6486;51.034;5.262;2023-02-08T09:31:12;4.67;;;3.43;;
12838;SDS011;6486;51.034;5.262;2023-02-08T09:33:42;7.20;;;4.70;;
12838;SDS011;6486;51.034;5.262;2023-02-08T09:36:08;4.83;;;3.20;;
12838;SDS011;6486;51.034;5.262;2023-02-08T09:38:35;5.70;;;3.27;;
12838;SDS011;6486;51.034;5.262;2023-02-08T09:46:55;5.70;;;3.00;;
12838;SDS011;6486;51.034;5.262;2023-02-08T09:49:34;5.27;;;3.17;;
12838;SDS011;6486;51.034;5.262;2023-02-08T09:52:10;4.97;;;3.07;;
12838;SDS011;6486;51.034;5.262;2023-02-08T09:54:44;4.13;;;2.60;;
12838;SDS011;6486;51.034;5.262;2023-02-08T09:57:15;5.07;;;3.73;;
12838;SDS011;6486;51.034;5.262;2023-02-08T09:59:50;3.80;;;3.50;;
12838;SDS011;6486;51.034;5.262;2023-02-08T10:07:28;4.47;;;3.77;;
12838;SDS011;6486;51.034;5.262;2023-02-08T10:09:55;2.27;;;2.13;;
12838;SDS011;6486;51.034;5.262;2023-02-08T10:12:41;7.77;;;3.47;;
12838;SDS011;6486;51.034;5.262;2023-02-08T10:15:13;2.73;;;2.50;;
12838;SDS011;6486;51.034;5.262;2023-02-08T10:20:32;2.17;;;1.80;;
12838;SDS011;6486;51.034;5.262;2023-02-08T10:23:27;5.50;;;3.13;;
12838;SDS011;6486;51.034;5.262;2023-02-08T10:36:50;3.97;;;2.50;;
12838;SDS011;6486;51.034;5.262;2023-02-08T10:39:18;2.57;;;2.37;;
12838;SDS011;6486;51.034;5.262;2023-02-08T10:41:54;2.73;;;1.60;;
12838;SDS011;6486;51.034;5.262;2023-02-08T10:44:32;4.07;;;2.63;;
12838;SDS011;6486;51.034;5.262;2023-02-08T10:52:40;3.30;;;2.57;;
12838;SDS011;6486;51.034;5.262;2023-02-08T10:55:16;9.87;;;3.67;;
12838;SDS011;6486;51.034;5.262;2023-02-08T10:57:44;3.10;;;2.27;;
12838;SDS011;6486;51.034;5.262;2023-02-08T11:02:53;1.90;;;1.80;;
12838;SDS011;6486;51.034;5.262;2023-02-08T11:05:34;10.93;;;3.10;;
12838;SDS011;6486;51.034;5.262;2023-02-08T11:10:29;3.10;;;1.73;;
12838;SDS011;6486;51.034;5.262;2023-02-08T11:12:59;2.57;;;2.13;;
12838;SDS011;6486;51.034;5.262;2023-02-08T11:15:35;2.60;;;1.93;;
12838;SDS011;6486;51.034;5.262;2023-02-08T11:18:14;3.20;;;1.93;;
12838;SDS011;6486;51.034;5.262;2023-02-08T11:20:46;4.50;;;1.53;;
12838;SDS011;6486;51.034;5.262;2023-02-08T11:23:26;3.07;;;2.10;;
12838;SDS011;6486;51.034;5.262;2023-02-08T11:29:19;2.63;;;1.90;;
12838;SDS011;6486;51.034;5.262;2023-02-08T11:34:48;2.00;;;1.80;;
12838;SDS011;6486;51.034;5.262;2023-02-08T11:37:17;2.23;;;2.10;;
12838;SDS011;6486;51.034;5.262;2023-02-08T11:39:51;1.13;;;1.07;;
12838;SDS011;6486;51.034;5.262;2023-02-08T11:42:22;2.63;;;2.17;;
12838;SDS011;6486;51.034;5.262;2023-02-08T11:44:53;3.07;;;1.27;;
12838;SDS011;6486;51.034;5.262;2023-02-08T11:47:25;2.20;;;1.70;;
12838;SDS011;6486;51.034;5.262;2023-02-08T11:50:01;0.80;;;0.80;;
12838;SDS011;6486;51.034;5.262;2023-02-08T11:52:36;2.40;;;1.73;;
12838;SDS011;6486;51.034;5.262;2023-02-08T12:00:30;1.77;;;0.97;;
12838;SDS011;6486;51.034;5.262;2023-02-08T12:05:39;2.30;;;1.73;;
12838;SDS011;6486;51.034;5.262;2023-02-08T12:08:26;2.30;;;1.13;;
12838;SDS011;6486;51.034;5.262;2023-02-08T12:14:11;0.70;;;0.70;;
12838;SDS011;6486;51.034;5.262;2023-02-08T12:21:55;0.70;;;0.70;;
12838;SDS011;6486;51.034;5.262;2023-02-08T12:24:37;0.90;;;0.90;;
12838;SDS011;6486;51.034;5.262;2023-02-08T12:32:49;0.70;;;0.70;;
12838;SDS011;6486;51.034;5.262;2023-02-08T12:41:33;0.80;;;0.80;;
12838;SDS011;6486;51.034;5.262;2023-02-08T12:46:50;0.93;;;0.70;;
12838;SDS011;6486;51.034;5.262;2023-02-08T12:57:25;1.30;;;1.20;;
12838;SDS011;6486;51.034;5.262;2023-02-08T13:00:05;1.90;;;1.63;;
12838;SDS011;6486;51.034;5.262;2023-02-08T13:02:42;0.80;;;0.80;;
12838;SDS011;6486;51.034;5.262;2023-02-08T13:05:20;2.37;;;1.57;;
12838;SDS011;6486;51.034;5.262;2023-02-08T13:07:48;1.83;;;1.73;;
12838;SDS011;6486;51.034;5.262;2023-02-08T13:10:30;1.10;;;1.07;;
12838;SDS011;6486;51.034;5.262;2023-02-08T13:13:03;2.53;;;1.70;;
12838;SDS011;6486;51.034;5.262;2023-02-08T13:15:38;0.77;;;0.77;;
12838;SDS011;6486;51.034;5.262;2023-02-08T13:18:26;0.70;;;0.70;;
12838;SDS011;6486;51.034;5.262;2023-02-08T13:20:59;4.07;;;1.57;;
12838;SDS011;6486;51.034;5.262;2023-02-08T13:23:50;3.43;;;1.60;;
12838;SDS011;6486;51.034;5.262;2023-02-08T13:28:51;0.70;;;0.70;;
12838;SDS011;6486;51.034;5.262;2023-02-08T13:31:20;1.27;;;1.17;;
12838;SDS011;6486;51.034;5.262;2023-02-08T13:33:54;2.47;;;2.27;;
12838;SDS011;6486;51.034;5.262;2023-02-08T13:36:26;7.63;;;1.00;;
12838;SDS011;6486;51.034;5.262;2023-02-08T13:39:08;2.90;;;1.37;;
12838;SDS011;6486;51.034;5.262;2023-02-08T13:41:56;0.80;;;0.80;;
12838;SDS011;6486;51.034;5.262;2023-02-08T13:44:27;0.70;;;0.70;;
12838;SDS011;6486;51.034;5.262;2023-02-08T13:46:57;0.73;;;0.70;;
12838;SDS011;6486;51.034;5.262;2023-02-08T13:58:03;1.37;;;0.80;;
12838;SDS011;6486;51.034;5.262;2023-02-08T14:03:21;1.90;;;0.70;;
12838;SDS011;6486;51.034;5.262;2023-02-08T14:05:49;0.37;;;0.37;;
12838;SDS011;6486;51.034;5.262;2023-02-08T14:08:40;0.33;;;0.33;;
12838;SDS011;6486;51.034;5.262;2023-02-08T14:19:33;0.63;;;0.63;;
12838;SDS011;6486;51.034;5.262;2023-02-08T14:22:01;1.40;;;0.63;;
12838;SDS011;6486;51.034;5.262;2023-02-08T14:29:40;0.80;;;0.63;;
12838;SDS011;6486;51.034;5.262;2023-02-08T14:32:06;0.70;;;0.60;;
12838;SDS011;6486;51.034;5.262;2023-02-08T14:34:32;0.90;;;0.90;;
12838;SDS011;6486;51.034;5.262;2023-02-08T14:37:05;5.00;;;1.47;;
12838;SDS011;6486;51.034;5.262;2023-02-08T14:45:25;1.13;;;1.03;;
12838;SDS011;6486;51.034;5.262;2023-02-08T14:48:01;1.13;;;0.60;;
12838;SDS011;6486;51.034;5.262;2023-02-08T14:50:32;1.60;;;1.50;;
12838;SDS011;6486;51.034;5.262;2023-02-08T14:55:38;1.53;;;1.27;;
12838;SDS011;6486;51.034;5.262;2023-02-08T14:58:27;1.30;;;0.90;;
12838;SDS011;6486;51.034;5.262;2023-02-08T15:01:02;1.40;;;0.60;;
12838;SDS011;6486;51.034;5.262;2023-02-08T15:03:32;1.40;;;1.30;;
12838;SDS011;6486;51.034;5.262;2023-02-08T15:08:35;1.20;;;1.17;;
12838;SDS011;6486;51.034;5.262;2023-02-08T15:11:02;4.27;;;2.07;;
12838;SDS011;6486;51.034;5.262;2023-02-08T15:13:27;0.63;;;0.63;;
12838;SDS011;6486;51.034;5.262;2023-02-08T15:15:54;10.03;;;2.00;;
12838;SDS011;6486;51.034;5.262;2023-02-08T15:18:22;0.97;;;0.77;;
12838;SDS011;6486;51.034;5.262;2023-02-08T15:21:01;0.97;;;0.97;;
12838;SDS011;6486;51.034;5.262;2023-02-08T15:23:29;1.87;;;1.40;;
12838;SDS011;6486;51.034;5.262;2023-02-08T15:25:56;3.10;;;1.97;;
12838;SDS011;6486;51.034;5.262;2023-02-08T15:28:23;19.43;;;2.43;;
12838;SDS011;6486;51.034;5.262;2023-02-08T15:31:14;2.40;;;1.73;;
12838;SDS011;6486;51.034;5.262;2023-02-08T15:33:40;2.10;;;1.63;;
12838;SDS011;6486;51.034;5.262;2023-02-08T15:36:29;0.70;;;0.70;;
12838;SDS011;6486;51.034;5.262;2023-02-08T15:38:56;0.93;;;0.90;;
12838;SDS011;6486;51.034;5.262;2023-02-08T15:41:24;3.93;;;1.50;;
12838;SDS011;6486;51.034;5.262;2023-02-08T15:44:11;2.13;;;1.20;;
12838;SDS011;6486;51.034;5.262;2023-02-08T15:46:42;5.07;;;1.77;;
12838;SDS011;6486;51.034;5.262;2023-02-08T15:49:13;1.07;;;1.07;;
12838;SDS011;6486;51.034;5.262;2023-02-08T15:51:43;1.17;;;1.07;;
12838;SDS011;6486;51.034;5.262;2023-02-08T15:54:15;1.17;;;1.07;;
12838;SDS011;6486;51.034;5.262;2023-02-08T15:56:46;1.43;;;1.33;;
12838;SDS011;6486;51.034;5.262;2023-02-08T15:59:17;2.73;;;1.57;;
12838;SDS011;6486;51.034;5.262;2023-02-08T16:01:46;1.87;;;1.07;;
12838;SDS011;6486;51.034;5.262;2023-02-08T16:04:13;1.20;;;1.10;;
12838;SDS011;6486;51.034;5.262;2023-02-08T16:06:39;2.83;;;2.63;;
12838;SDS011;6486;51.034;5.262;2023-02-08T16:09:12;9.57;;;3.70;;
12838;SDS011;6486;51.034;5.262;2023-02-08T16:11:44;2.63;;;2.17;;
12838;SDS011;6486;51.034;5.262;2023-02-08T16:14:13;7.87;;;3.27;;
12838;SDS011;6486;51.034;5.262;2023-02-08T16:16:44;3.97;;;3.27;;
12838;SDS011;6486;51.034;5.262;2023-02-08T16:19:22;7.27;;;6.17;;
12838;SDS011;6486;51.034;5.262;2023-02-08T16:21:54;7.37;;;3.30;;
12838;SDS011;6486;51.034;5.262;2023-02-08T16:24:23;6.90;;;2.73;;
12838;SDS011;6486;51.034;5.262;2023-02-08T16:31:56;12.10;;;3.50;;
12838;SDS011;6486;51.034;5.262;2023-02-08T16:34:25;7.40;;;2.27;;
12838;SDS011;6486;51.034;5.262;2023-02-08T16:36:52;1.43;;;1.33;;
12838;SDS011;6486;51.034;5.262;2023-02-08T16:39:24;1.20;;;1.20;;
12838;SDS011;6486;51.034;5.262;2023-02-08T16:42:03;1.63;;;1.50;;
12838;SDS011;6486;51.034;5.262;2023-02-08T16:44:31;1.33;;;1.00;;
12838;SDS011;6486;51.034;5.262;2023-02-08T16:46:59;4.40;;;1.47;;
12838;SDS011;6486;51.034;5.262;2023-02-08T16:49:26;1.53;;;1.43;;
12838;SDS011;6486;51.034;5.262;2023-02-08T16:51:58;0.93;;;0.80;;
12838;SDS011;6486;51.034;5.262;2023-02-08T16:54:24;4.40;;;2.57;;
12838;SDS011;6486;51.034;5.262;2023-02-08T16:56:51;3.13;;;1.80;;
12838;SDS011;6486;51.034;5.262;2023-02-08T16:59:24;3.63;;;1.40;;
12838;SDS011;6486;51.034;5.262;2023-02-08T17:01:51;2.50;;;2.17;;
12838;SDS011;6486;51.034;5.262;2023-02-08T17:04:18;3.13;;;2.80;;
12838;SDS011;6486;51.034;5.262;2023-02-08T17:06:44;5.17;;;3.17;;
12838;SDS011;6486;51.034;5.262;2023-02-08T17:09:11;2.70;;;1.47;;
12838;SDS011;6486;51.034;5.262;2023-02-08T17:11:37;3.23;;;0.87;;
12838;SDS011;6486;51.034;5.262;2023-02-08T17:14:04;2.90;;;1.57;;
12838;SDS011;6486;51.034;5.262;2023-02-08T17:16:31;1.83;;;1.20;;
12838;SDS011;6486;51.034;5.262;2023-02-08T17:18:58;0.80;;;0.80;;
12838;SDS011;6486;51.034;5.262;2023-02-08T17:21:24;2.87;;;2.67;;
12838;SDS011;6486;51.034;5.262;2023-02-08T17:23:52;2.07;;;1.73;;
12838;SDS011;6486;51.034;5.262;2023-02-08T17:26:22;1.63;;;1.23;;
12838;SDS011;6486;51.034;5.262;2023-02-08T17:28:56;2.27;;;1.03;;
12838;SDS011;6486;51.034;5.262;2023-02-08T17:31:23;2.93;;;2.17;;
12838;SDS011;6486;51.034;5.262;2023-02-08T17:33:49;9.37;;;4.87;;
12838;SDS011;6486;51.034;5.262;2023-02-08T17:36:15;1.90;;;0.93;;
12838;SDS011;6486;51.034;5.262;2023-02-08T17:38:43;2.50;;;2.30;;
12838;SDS011;6486;51.034;5.262;2023-02-08T17:41:13;3.43;;;1.20;;
12838;SDS011;6486;51.034;5.262;2023-02-08T17:43:40;1.90;;;1.70;;
12838;SDS011;6486;51.034;5.262;2023-02-08T17:48:35;2.17;;;1.97;;
12838;SDS011;6486;51.034;5.262;2023-02-08T17:51:01;3.93;;;2.40;;
12838;SDS011;6486;51.034;5.262;2023-02-08T17:53:31;1.43;;;1.33;;
12838;SDS011;6486;51.034;5.262;2023-02-08T17:55:57;3.77;;;2.60;;
12838;SDS011;6486;51.034;5.262;2023-02-08T17:58:22;3.03;;;2.07;;
12838;SDS011;6486;51.034;5.262;2023-02-08T18:00:48;2.27;;;1.33;;